This is the latest recevied weather packets stored in our database for station/object KD4MBW. If no packets are shown the sender has not sent any weather packets the latest 10 day(s).
| Time | Temp. | Humidity | Pressure | Rain* | Wind** | Luminosity | Snow |
|---|---|---|---|---|---|---|---|
| 1777406020 | 28.33° C | 68% | 1019 hPa | 0 mm | - | 264 W/m² | - |
| 1777405718 | 28.33° C | 68% | 1019.2 hPa | 0 mm | - | 729 W/m² | - |
| 1777405414 | 27.78° C | 71% | 1019.2 hPa | 0 mm | - | 283 W/m² | - |
| 1777405110 | 27.78° C | 71% | 1019.3 hPa | 0 mm | - | 229 W/m² | - |
| 1777404803 | 27.22° C | 71% | 1019.5 hPa | 0 mm | - | 201 W/m² | - |
| 1777404495 | 28.33° C | 68% | 1019.5 hPa | 0 mm | - | 234 W/m² | - |
| 1777404191 | 28.33° C | 67% | 1019.6 hPa | 0 mm | - | 826 W/m² | - |
| 1777403887 | 28.33° C | 68% | 1019.6 hPa | 0 mm | - | 787 W/m² | - |
| 1777403586 | 28.89° C | 67% | 1019.8 hPa | 0 mm | - | 816 W/m² | - |
| 1777403281 | 27.78° C | 69% | 1020 hPa | 0 mm | - | 861 W/m² | - |
| 1777402976 | 27.78° C | 70% | 1020 hPa | 0 mm | - | 243 W/m² | - |
| 1777402671 | 28.33° C | 70% | 1020.2 hPa | 0 mm | - | 263 W/m² | - |
| 1777402370 | 27.78° C | 69% | 1020 hPa | 0 mm | - | 341 W/m² | - |
| 1777402069 | 27.78° C | 70% | 1020.2 hPa | 0 mm | - | 387 W/m² | - |
| 1777401765 | 27.78° C | 71% | 1020.6 hPa | 0 mm | - | 271 W/m² | - |
| 1777401459 | 28.33° C | 69% | 1020.6 hPa | 0 mm | - | 237 W/m² | - |
| 1777401155 | 27.22° C | 70% | 1020.6 hPa | 0 mm | - | 846 W/m² | - |
| 1777400851 | 26.67° C | 72% | 1020.8 hPa | 0 mm | - | 912 W/m² | - |
| 1777400548 | 27.22° C | 71% | 1020.6 hPa | 0 mm | - | 443 W/m² | - |
| 1777400245 | 27.22° C | 72% | 1020.7 hPa | 0 mm | - | 567 W/m² | - |
| 1777399941 | 27.22° C | 71% | 1020.7 hPa | 0 mm | - | 794 W/m² | - |
| 1777399638 | 26.67° C | 72% | 1020.7 hPa | 0 mm | - | 646 W/m² | - |
| 1777399335 | 27.22° C | 73% | 1020.6 hPa | 0 mm | - | 322 W/m² | - |
| 1777399033 | 26.67° C | 74% | 1020.7 hPa | 0 mm | - | 436 W/m² | - |
| 1777398730 | 26.67° C | 73% | 1020.9 hPa | 0 mm | - | 362 W/m² | - |
* Rain latest hour (hover to see other rain measurements)
** Current wind speed in m/s (hover to see current wind gust speed)